sensor_id;sensor_type;location;lat;lon;timestamp;pressure;altitude;pressure_sealevel;temperature;humidity
53659;BME280;41524;35.624;139.698;2023-05-03T00:00:16;102463.00;;;19.33;36.47
53659;BME280;41524;35.624;139.698;2023-05-03T00:05:17;102463.00;;;19.91;35.90
53659;BME280;41524;35.624;139.698;2023-05-03T00:10:16;102462.00;;;17.37;37.54
53659;BME280;41524;35.624;139.698;2023-05-03T00:15:10;102449.00;;;18.16;38.51
53659;BME280;41524;35.624;139.698;2023-05-03T00:20:16;102443.00;;;17.68;39.33
53659;BME280;41524;35.624;139.698;2023-05-03T00:25:12;102432.00;;;18.98;38.84
53659;BME280;41524;35.624;139.698;2023-05-03T00:30:12;102436.00;;;18.08;38.71
53659;BME280;41524;35.624;139.698;2023-05-03T00:35:12;102434.00;;;17.21;40.47
53659;BME280;41524;35.624;139.698;2023-05-03T00:40:11;102421.00;;;18.45;38.30
53659;BME280;41524;35.624;139.698;2023-05-03T00:45:16;102418.00;;;19.15;38.07
53659;BME280;41524;35.624;139.698;2023-05-03T00:50:11;102413.00;;;18.77;38.90
53659;BME280;41524;35.624;139.698;2023-05-03T00:55:16;102402.00;;;16.98;41.03
53659;BME280;41524;35.624;139.698;2023-05-03T01:00:16;102397.00;;;18.72;39.23
53659;BME280;41524;35.624;139.698;2023-05-03T01:05:22;102392.00;;;18.18;41.38
53659;BME280;41524;35.624;139.698;2023-05-03T01:10:22;102385.00;;;19.09;39.36
53659;BME280;41524;35.624;139.698;2023-05-03T01:15:16;102379.00;;;18.51;40.54
53659;BME280;41524;35.624;139.698;2023-05-03T01:20:15;102372.00;;;19.19;40.36
53659;BME280;41524;35.624;139.698;2023-05-03T01:25:16;102376.00;;;17.58;42.20
53659;BME280;41524;35.624;139.698;2023-05-03T01:30:13;102373.00;;;18.83;41.79
53659;BME280;41524;35.624;139.698;2023-05-03T01:35:19;102370.00;;;18.94;36.77
53659;BME280;41524;35.624;139.698;2023-05-03T01:40:18;102365.00;;;20.38;36.57
53659;BME280;41524;35.624;139.698;2023-05-03T01:45:12;102359.00;;;18.02;38.47
53659;BME280;41524;35.624;139.698;2023-05-03T01:50:10;102344.00;;;20.25;36.57
53659;BME280;41524;35.624;139.698;2023-05-03T01:55:15;102341.00;;;18.39;38.06
53659;BME280;41524;35.624;139.698;2023-05-03T02:00:16;102329.00;;;17.72;39.44
53659;BME280;41524;35.624;139.698;2023-05-03T02:05:11;102326.00;;;18.86;38.11
53659;BME280;41524;35.624;139.698;2023-05-03T02:10:15;102328.00;;;18.37;38.50
53659;BME280;41524;35.624;139.698;2023-05-03T02:15:14;102325.00;;;18.45;37.52
53659;BME280;41524;35.624;139.698;2023-05-03T02:20:11;102308.00;;;20.00;36.49
53659;BME280;41524;35.624;139.698;2023-05-03T02:25:10;102305.00;;;19.59;37.33
53659;BME280;41524;35.624;139.698;2023-05-03T02:30:16;102301.00;;;18.85;38.14
53659;BME280;41524;35.624;139.698;2023-05-03T02:35:11;102290.00;;;20.48;36.26
53659;BME280;41524;35.624;139.698;2023-05-03T02:40:11;102286.00;;;20.12;37.18
53659;BME280;41524;35.624;139.698;2023-05-03T02:45:11;102286.00;;;19.33;36.37
53659;BME280;41524;35.624;139.698;2023-05-03T02:50:11;102272.00;;;19.79;36.04
53659;BME280;41524;35.624;139.698;2023-05-03T02:55:12;102268.00;;;20.47;36.08
53659;BME280;41524;35.624;139.698;2023-05-03T03:00:12;102260.00;;;19.35;36.81
53659;BME280;41524;35.624;139.698;2023-05-03T03:05:12;102260.00;;;19.78;35.97
53659;BME280;41524;35.624;139.698;2023-05-03T03:10:15;102257.00;;;19.53;36.33
53659;BME280;41524;35.624;139.698;2023-05-03T03:15:11;102243.00;;;20.07;35.65
53659;BME280;41524;35.624;139.698;2023-05-03T03:20:11;102225.00;;;20.69;35.46
53659;BME280;41524;35.624;139.698;2023-05-03T03:25:11;102218.00;;;19.78;36.21
53659;BME280;41524;35.624;139.698;2023-05-03T03:30:12;102210.00;;;20.42;35.85
53659;BME280;41524;35.624;139.698;2023-05-03T03:35:12;102213.00;;;19.89;36.39
53659;BME280;41524;35.624;139.698;2023-05-03T03:40:12;102211.00;;;19.66;36.70
53659;BME280;41524;35.624;139.698;2023-05-03T03:45:11;102201.00;;;18.89;37.75
53659;BME280;41524;35.624;139.698;2023-05-03T03:50:11;102191.00;;;20.53;37.06
53659;BME280;41524;35.624;139.698;2023-05-03T03:55:11;102184.00;;;19.48;38.28
53659;BME280;41524;35.624;139.698;2023-05-03T04:00:12;102175.00;;;20.27;35.74
53659;BME280;41524;35.624;139.698;2023-05-03T04:05:10;102160.00;;;20.37;35.91
53659;BME280;41524;35.624;139.698;2023-05-03T04:10:11;102143.00;;;19.38;37.53
53659;BME280;41524;35.624;139.698;2023-05-03T04:15:16;102141.00;;;20.32;36.83
53659;BME280;41524;35.624;139.698;2023-05-03T04:20:12;102141.00;;;20.33;36.79
53659;BME280;41524;35.624;139.698;2023-05-03T04:25:12;102144.00;;;19.46;38.51
53659;BME280;41524;35.624;139.698;2023-05-03T04:30:16;102140.00;;;20.23;37.34
53659;BME280;41524;35.624;139.698;2023-05-03T04:35:11;102141.00;;;20.02;37.71
53659;BME280;41524;35.624;139.698;2023-05-03T04:40:11;102133.00;;;19.15;39.59
53659;BME280;41524;35.624;139.698;2023-05-03T04:45:11;102128.00;;;18.57;40.46
53659;BME280;41524;35.624;139.698;2023-05-03T04:50:14;102122.00;;;20.03;38.38
53659;BME280;41524;35.624;139.698;2023-05-03T04:55:11;102109.00;;;19.46;39.35
53659;BME280;41524;35.624;139.698;2023-05-03T05:00:11;102101.00;;;19.92;38.52
53659;BME280;41524;35.624;139.698;2023-05-03T05:05:11;102095.00;;;21.29;38.53
53659;BME280;41524;35.624;139.698;2023-05-03T05:10:10;102083.00;;;20.54;39.52
53659;BME280;41524;35.624;139.698;2023-05-03T05:15:18;102080.00;;;20.00;39.79
53659;BME280;41524;35.624;139.698;2023-05-03T05:20:11;102068.00;;;20.44;38.91
53659;BME280;41524;35.624;139.698;2023-05-03T05:25:16;102052.00;;;19.58;40.71
53659;BME280;41524;35.624;139.698;2023-05-03T05:30:16;102047.00;;;21.47;36.97
53659;BME280;41524;35.624;139.698;2023-05-03T05:35:17;102047.00;;;19.71;39.06
53659;BME280;41524;35.624;139.698;2023-05-03T05:40:14;102039.00;;;21.20;37.54
53659;BME280;41524;35.624;139.698;2023-05-03T05:45:12;102025.00;;;19.97;40.36
53659;BME280;41524;35.624;139.698;2023-05-03T05:50:13;102025.00;;;20.00;39.82
53659;BME280;41524;35.624;139.698;2023-05-03T05:55:13;102037.00;;;19.84;40.01
53659;BME280;41524;35.624;139.698;2023-05-03T06:00:12;102025.00;;;19.92;39.46
53659;BME280;41524;35.624;139.698;2023-05-03T06:05:11;102038.00;;;20.83;38.59
53659;BME280;41524;35.624;139.698;2023-05-03T06:10:11;102034.00;;;20.04;39.25
53659;BME280;41524;35.624;139.698;2023-05-03T06:15:16;102033.00;;;19.92;39.90
53659;BME280;41524;35.624;139.698;2023-05-03T06:20:11;102032.00;;;20.62;39.15
53659;BME280;41524;35.624;139.698;2023-05-03T06:25:11;102016.00;;;20.23;39.85
53659;BME280;41524;35.624;139.698;2023-05-03T06:30:13;102021.00;;;19.98;40.16
53659;BME280;41524;35.624;139.698;2023-05-03T06:35:10;102028.00;;;19.74;40.46
53659;BME280;41524;35.624;139.698;2023-05-03T06:40:11;102016.00;;;20.27;39.47
53659;BME280;41524;35.624;139.698;2023-05-03T06:45:16;102011.00;;;20.44;39.63
53659;BME280;41524;35.624;139.698;2023-05-03T06:50:11;102007.00;;;19.97;40.51
53659;BME280;41524;35.624;139.698;2023-05-03T06:55:16;102012.00;;;19.57;40.54
53659;BME280;41524;35.624;139.698;2023-05-03T07:00:12;102008.00;;;20.03;40.00
53659;BME280;41524;35.624;139.698;2023-05-03T07:05:15;102009.00;;;19.36;40.70
53659;BME280;41524;35.624;139.698;2023-05-03T07:10:16;102014.00;;;19.85;39.84
53659;BME280;41524;35.624;139.698;2023-05-03T07:15:17;102014.00;;;18.82;41.64
53659;BME280;41524;35.624;139.698;2023-05-03T07:20:11;102023.00;;;18.83;41.40
53659;BME280;41524;35.624;139.698;2023-05-03T07:25:10;102014.00;;;19.25;40.87
53659;BME280;41524;35.624;139.698;2023-05-03T07:30:21;102015.00;;;19.32;40.89
53659;BME280;41524;35.624;139.698;2023-05-03T07:35:16;102020.00;;;19.84;40.20
53659;BME280;41524;35.624;139.698;2023-05-03T07:40:16;102016.00;;;19.06;41.48
53659;BME280;41524;35.624;139.698;2023-05-03T07:45:12;102015.00;;;17.80;44.15
53659;BME280;41524;35.624;139.698;2023-05-03T07:50:17;102011.00;;;19.68;41.62
53659;BME280;41524;35.624;139.698;2023-05-03T07:55:17;102009.00;;;18.71;42.62
53659;BME280;41524;35.624;139.698;2023-05-03T08:00:15;102006.00;;;18.84;42.97
53659;BME280;41524;35.624;139.698;2023-05-03T08:05:10;102011.00;;;18.38;43.49
53659;BME280;41524;35.624;139.698;2023-05-03T08:10:11;102017.00;;;18.26;44.22
53659;BME280;41524;35.624;139.698;2023-05-03T08:15:10;102014.00;;;18.53;43.63
53659;BME280;41524;35.624;139.698;2023-05-03T08:20:17;102020.00;;;18.40;43.70
53659;BME280;41524;35.624;139.698;2023-05-03T08:25:11;102016.00;;;18.27;44.15
53659;BME280;41524;35.624;139.698;2023-05-03T08:30:19;102022.00;;;17.32;46.36
53659;BME280;41524;35.624;139.698;2023-05-03T08:35:14;102013.00;;;18.04;44.34
53659;BME280;41524;35.624;139.698;2023-05-03T08:40:12;102013.00;;;17.94;44.63
53659;BME280;41524;35.624;139.698;2023-05-03T08:45:14;102014.00;;;18.87;43.39
53659;BME280;41524;35.624;139.698;2023-05-03T08:50:13;102013.00;;;18.52;44.16
53659;BME280;41524;35.624;139.698;2023-05-03T08:55:15;102008.00;;;17.28;47.48
53659;BME280;41524;35.624;139.698;2023-05-03T09:00:11;102006.00;;;18.77;45.84
53659;BME280;41524;35.624;139.698;2023-05-03T09:05:44;102001.00;;;18.15;47.68
53659;BME280;41524;35.624;139.698;2023-05-03T09:10:22;102004.00;;;18.35;47.60
53659;BME280;41524;35.624;139.698;2023-05-03T09:15:26;102000.00;;;18.36;47.98
53659;BME280;41524;35.624;139.698;2023-05-03T09:20:25;102006.00;;;18.65;47.78
53659;BME280;41524;35.624;139.698;2023-05-03T09:25:10;102001.00;;;17.22;50.74
53659;BME280;41524;35.624;139.698;2023-05-03T09:30:18;102000.00;;;18.09;49.83
53659;BME280;41524;35.624;139.698;2023-05-03T09:35:12;102007.00;;;18.84;47.95
53659;BME280;41524;35.624;139.698;2023-05-03T09:40:16;102014.00;;;18.50;49.07
53659;BME280;41524;35.624;139.698;2023-05-03T09:45:11;102020.00;;;18.26;49.44
53659;BME280;41524;35.624;139.698;2023-05-03T09:50:11;102024.00;;;18.67;49.14
53659;BME280;41524;35.624;139.698;2023-05-03T09:55:11;102034.00;;;18.71;49.58
53659;BME280;41524;35.624;139.698;2023-05-03T10:00:12;102038.00;;;18.93;48.19
53659;BME280;41524;35.624;139.698;2023-05-03T10:05:13;102043.00;;;17.65;49.63
53659;BME280;41524;35.624;139.698;2023-05-03T10:10:16;102038.00;;;17.70;50.00
53659;BME280;41524;35.624;139.698;2023-05-03T10:15:13;102040.00;;;17.52;49.92
53659;BME280;41524;35.624;139.698;2023-05-03T10:20:23;102046.00;;;17.39;49.73
53659;BME280;41524;35.624;139.698;2023-05-03T10:25:16;102038.00;;;17.64;49.69
53659;BME280;41524;35.624;139.698;2023-05-03T10:30:27;102043.00;;;17.44;49.77
53659;BME280;41524;35.624;139.698;2023-05-03T10:35:13;102048.00;;;18.12;49.04
53659;BME280;41524;35.624;139.698;2023-05-03T10:40:18;102054.00;;;18.04;48.54
53659;BME280;41524;35.624;139.698;2023-05-03T10:45:22;102066.00;;;17.92;47.80
53659;BME280;41524;35.624;139.698;2023-05-03T10:50:28;102072.00;;;17.13;49.24
53659;BME280;41524;35.624;139.698;2023-05-03T10:55:18;102082.00;;;16.93;49.77
53659;BME280;41524;35.624;139.698;2023-05-03T11:00:16;102089.00;;;17.25;48.38
53659;BME280;41524;35.624;139.698;2023-05-03T11:05:12;102087.00;;;17.38;47.75
53659;BME280;41524;35.624;139.698;2023-05-03T11:10:18;102090.00;;;17.06;48.93
53659;BME280;41524;35.624;139.698;2023-05-03T11:15:11;102097.00;;;17.51;48.22
53659;BME280;41524;35.624;139.698;2023-05-03T11:20:12;102099.00;;;17.78;49.02
53659;BME280;41524;35.624;139.698;2023-05-03T11:25:14;102105.00;;;17.09;50.48
53659;BME280;41524;35.624;139.698;2023-05-03T11:30:11;102102.00;;;16.50;50.84
53659;BME280;41524;35.624;139.698;2023-05-03T11:35:13;102105.00;;;15.46;52.87
53659;BME280;41524;35.624;139.698;2023-05-03T11:40:17;102100.00;;;16.68;51.42
53659;BME280;41524;35.624;139.698;2023-05-03T11:45:12;102102.00;;;16.99;50.64
53659;BME280;41524;35.624;139.698;2023-05-03T11:50:11;102101.00;;;15.56;52.89
53659;BME280;41524;35.624;139.698;2023-05-03T11:55:21;102098.00;;;15.98;52.27
53659;BME280;41524;35.624;139.698;2023-05-03T12:00:18;102101.00;;;16.06;52.33
53659;BME280;41524;35.624;139.698;2023-05-03T12:05:11;102100.00;;;17.22;50.76
53659;BME280;41524;35.624;139.698;2023-05-03T12:10:18;102095.00;;;16.11;52.27
53659;BME280;41524;35.624;139.698;2023-05-03T12:15:11;102094.00;;;16.98;51.61
53659;BME280;41524;35.624;139.698;2023-05-03T12:20:18;102088.00;;;16.14;52.73
53659;BME280;41524;35.624;139.698;2023-05-03T12:25:11;102090.00;;;16.15;52.99
53659;BME280;41524;35.624;139.698;2023-05-03T12:30:17;102094.00;;;16.27;53.56
53659;BME280;41524;35.624;139.698;2023-05-03T12:35:10;102101.00;;;17.11;52.10
53659;BME280;41524;35.624;139.698;2023-05-03T12:40:12;102091.00;;;16.42;53.59
53659;BME280;41524;35.624;139.698;2023-05-03T12:45:16;102088.00;;;16.91;52.87
53659;BME280;41524;35.624;139.698;2023-05-03T12:50:12;102086.00;;;16.04;54.17
53659;BME280;41524;35.624;139.698;2023-05-03T12:55:18;102094.00;;;16.45;53.77
53659;BME280;41524;35.624;139.698;2023-05-03T13:00:21;102085.00;;;16.65;53.62
53659;BME280;41524;35.624;139.698;2023-05-03T13:05:17;102079.00;;;16.02;54.77
53659;BME280;41524;35.624;139.698;2023-05-03T13:10:16;102081.00;;;15.80;55.58
53659;BME280;41524;35.624;139.698;2023-05-03T13:15:16;102089.00;;;15.93;55.54
53659;BME280;41524;35.624;139.698;2023-05-03T13:20:12;102096.00;;;16.72;54.36
53659;BME280;41524;35.624;139.698;2023-05-03T13:25:16;102094.00;;;17.55;52.31
53659;BME280;41524;35.624;139.698;2023-05-03T13:30:12;102091.00;;;17.31;53.34
53659;BME280;41524;35.624;139.698;2023-05-03T13:35:11;102085.00;;;17.20;52.81
53659;BME280;41524;35.624;139.698;2023-05-03T13:40:16;102082.00;;;17.39;52.90
53659;BME280;41524;35.624;139.698;2023-05-03T13:45:11;102068.00;;;17.50;52.48
53659;BME280;41524;35.624;139.698;2023-05-03T13:50:19;102064.00;;;17.02;52.71
53659;BME280;41524;35.624;139.698;2023-05-03T13:55:16;102065.00;;;17.67;52.01
53659;BME280;41524;35.624;139.698;2023-05-03T14:00:16;102067.00;;;17.42;52.24
53659;BME280;41524;35.624;139.698;2023-05-03T14:05:11;102063.00;;;16.40;54.51
53659;BME280;41524;35.624;139.698;2023-05-03T14:10:12;102064.00;;;16.91;54.19
53659;BME280;41524;35.624;139.698;2023-05-03T14:15:16;102056.00;;;16.26;54.83
53659;BME280;41524;35.624;139.698;2023-05-03T14:20:11;102054.00;;;16.50;54.68
53659;BME280;41524;35.624;139.698;2023-05-03T14:25:20;102056.00;;;17.11;54.01
53659;BME280;41524;35.624;139.698;2023-05-03T14:30:11;102051.00;;;16.44;54.66
53659;BME280;41524;35.624;139.698;2023-05-03T14:35:11;102049.00;;;17.14;53.72
53659;BME280;41524;35.624;139.698;2023-05-03T14:40:12;102041.00;;;17.43;52.96
53659;BME280;41524;35.624;139.698;2023-05-03T14:45:17;102043.00;;;17.40;53.33
53659;BME280;41524;35.624;139.698;2023-05-03T14:50:11;102041.00;;;16.42;55.71
53659;BME280;41524;35.624;139.698;2023-05-03T14:55:10;102042.00;;;17.15;54.80
53659;BME280;41524;35.624;139.698;2023-05-03T15:00:23;102042.00;;;17.19;55.05
53659;BME280;41524;35.624;139.698;2023-05-03T15:05:10;102046.00;;;16.48;55.46
53659;BME280;41524;35.624;139.698;2023-05-03T15:10:16;102043.00;;;16.72;55.81
53659;BME280;41524;35.624;139.698;2023-05-03T15:15:16;102037.00;;;15.98;57.41
53659;BME280;41524;35.624;139.698;2023-05-03T15:20:12;102032.00;;;17.21;55.27
53659;BME280;41524;35.624;139.698;2023-05-03T15:25:15;102020.00;;;17.94;53.42
53659;BME280;41524;35.624;139.698;2023-05-03T15:30:16;102021.00;;;17.70;53.67
53659;BME280;41524;35.624;139.698;2023-05-03T15:35:11;102026.00;;;17.08;55.06
53659;BME280;41524;35.624;139.698;2023-05-03T15:40:16;102026.00;;;16.13;56.96
53659;BME280;41524;35.624;139.698;2023-05-03T15:45:16;102018.00;;;17.23;54.88
53659;BME280;41524;35.624;139.698;2023-05-03T15:50:11;102006.00;;;16.05;56.96
53659;BME280;41524;35.624;139.698;2023-05-03T15:55:12;102006.00;;;17.48;54.31
53659;BME280;41524;35.624;139.698;2023-05-03T16:00:13;102013.00;;;16.04;56.82
53659;BME280;41524;35.624;139.698;2023-05-03T16:05:15;102004.00;;;16.07;56.99
53659;BME280;41524;35.624;139.698;2023-05-03T16:10:16;102000.00;;;16.60;55.68
53659;BME280;41524;35.624;139.698;2023-05-03T16:15:12;101993.00;;;16.90;55.33
53659;BME280;41524;35.624;139.698;2023-05-03T16:20:20;101986.00;;;16.39;56.38
53659;BME280;41524;35.624;139.698;2023-05-03T16:25:11;101972.00;;;15.97;57.03
53659;BME280;41524;35.624;139.698;2023-05-03T16:30:11;101960.00;;;15.77;57.37
53659;BME280;41524;35.624;139.698;2023-05-03T16:35:10;101964.00;;;16.02;57.27
53659;BME280;41524;35.624;139.698;2023-05-03T16:40:11;101962.00;;;15.94;57.47
53659;BME280;41524;35.624;139.698;2023-05-03T16:45:12;101965.00;;;16.78;55.79
53659;BME280;41524;35.624;139.698;2023-05-03T16:50:12;101960.00;;;16.40;56.48
53659;BME280;41524;35.624;139.698;2023-05-03T16:55:11;101964.00;;;16.71;56.05
53659;BME280;41524;35.624;139.698;2023-05-03T17:00:12;101963.00;;;16.32;56.48
53659;BME280;41524;35.624;139.698;2023-05-03T17:05:12;101961.00;;;16.90;55.61
53659;BME280;41524;35.624;139.698;2023-05-03T17:10:14;101954.00;;;16.12;56.44
53659;BME280;41524;35.624;139.698;2023-05-03T17:15:13;101951.00;;;17.07;54.77
53659;BME280;41524;35.624;139.698;2023-05-03T17:20:12;101952.00;;;16.28;56.05
53659;BME280;41524;35.624;139.698;2023-05-03T17:25:11;101959.00;;;16.67;55.00
53659;BME280;41524;35.624;139.698;2023-05-03T17:30:11;101957.00;;;16.97;54.26
53659;BME280;41524;35.624;139.698;2023-05-03T17:35:11;101961.00;;;16.32;55.64
53659;BME280;41524;35.624;139.698;2023-05-03T17:40:11;101969.00;;;15.70;56.64
53659;BME280;41524;35.624;139.698;2023-05-03T17:45:11;101977.00;;;16.90;54.61
53659;BME280;41524;35.624;139.698;2023-05-03T17:50:15;101977.00;;;16.87;54.71
53659;BME280;41524;35.624;139.698;2023-05-03T17:55:11;101981.00;;;16.03;55.86
53659;BME280;41524;35.624;139.698;2023-05-03T18:00:11;101982.00;;;16.00;56.14
53659;BME280;41524;35.624;139.698;2023-05-03T18:05:12;101978.00;;;16.81;54.84
53659;BME280;41524;35.624;139.698;2023-05-03T18:10:12;101977.00;;;16.65;54.54
53659;BME280;41524;35.624;139.698;2023-05-03T18:15:12;101978.00;;;16.80;54.58
53659;BME280;41524;35.624;139.698;2023-05-03T18:20:11;101986.00;;;15.92;56.33
53659;BME280;41524;35.624;139.698;2023-05-03T18:25:16;101988.00;;;15.82;56.04
53659;BME280;41524;35.624;139.698;2023-05-03T18:30:11;101994.00;;;16.10;55.80
53659;BME280;41524;35.624;139.698;2023-05-03T18:35:11;101994.00;;;16.11;55.90
53659;BME280;41524;35.624;139.698;2023-05-03T18:40:11;101987.00;;;15.57;56.85
53659;BME280;41524;35.624;139.698;2023-05-03T18:45:11;101981.00;;;15.88;56.20
53659;BME280;41524;35.624;139.698;2023-05-03T18:50:10;101977.00;;;15.90;56.20
53659;BME280;41524;35.624;139.698;2023-05-03T18:55:11;101976.00;;;15.71;56.42
53659;BME280;41524;35.624;139.698;2023-05-03T19:00:12;101968.00;;;15.53;57.18
53659;BME280;41524;35.624;139.698;2023-05-03T19:05:11;101960.00;;;16.45;55.20
53659;BME280;41524;35.624;139.698;2023-05-03T19:10:13;101958.00;;;16.18;55.59
53659;BME280;41524;35.624;139.698;2023-05-03T19:15:13;101965.00;;;15.60;56.54
53659;BME280;41524;35.624;139.698;2023-05-03T19:20:16;101971.00;;;16.55;55.22
53659;BME280;41524;35.624;139.698;2023-05-03T19:25:12;101973.00;;;16.12;55.63
53659;BME280;41524;35.624;139.698;2023-05-03T19:30:11;101979.00;;;15.76;56.92
53659;BME280;41524;35.624;139.698;2023-05-03T19:35:11;101985.00;;;16.22;55.68
53659;BME280;41524;35.624;139.698;2023-05-03T19:40:12;101984.00;;;15.72;56.90
53659;BME280;41524;35.624;139.698;2023-05-03T19:45:13;101985.00;;;15.75;57.23
53659;BME280;41524;35.624;139.698;2023-05-03T19:50:11;101990.00;;;15.34;57.87
53659;BME280;41524;35.624;139.698;2023-05-03T19:55:10;101994.00;;;15.27;58.34
53659;BME280;41524;35.624;139.698;2023-05-03T20:00:16;101996.00;;;15.10;58.52
53659;BME280;41524;35.624;139.698;2023-05-03T20:05:11;102008.00;;;14.62;59.57
53659;BME280;41524;35.624;139.698;2023-05-03T20:10:12;102011.00;;;14.44;60.31
53659;BME280;41524;35.624;139.698;2023-05-03T20:15:12;102021.00;;;14.62;59.76
53659;BME280;41524;35.624;139.698;2023-05-03T20:20:18;102035.00;;;15.20;58.73
53659;BME280;41524;35.624;139.698;2023-05-03T20:25:11;102045.00;;;15.10;59.10
53659;BME280;41524;35.624;139.698;2023-05-03T20:30:12;102052.00;;;15.06;59.34
53659;BME280;41524;35.624;139.698;2023-05-03T20:35:12;102048.00;;;15.14;59.18
53659;BME280;41524;35.624;139.698;2023-05-03T20:40:11;102049.00;;;15.19;58.48
53659;BME280;41524;35.624;139.698;2023-05-03T20:45:11;102058.00;;;14.96;58.75
53659;BME280;41524;35.624;139.698;2023-05-03T20:50:11;102066.00;;;15.24;57.99
53659;BME280;41524;35.624;139.698;2023-05-03T20:55:12;102070.00;;;15.54;57.05
53659;BME280;41524;35.624;139.698;2023-05-03T21:00:18;102073.00;;;15.93;56.74
53659;BME280;41524;35.624;139.698;2023-05-03T21:05:16;102078.00;;;15.79;56.25
53659;BME280;41524;35.624;139.698;2023-05-03T21:10:11;102074.00;;;15.13;57.23
53659;BME280;41524;35.624;139.698;2023-05-03T21:15:11;102078.00;;;15.64;56.52
53659;BME280;41524;35.624;139.698;2023-05-03T21:20:13;102087.00;;;15.78;55.41
53659;BME280;41524;35.624;139.698;2023-05-03T21:25:12;102101.00;;;15.75;54.75
53659;BME280;41524;35.624;139.698;2023-05-03T21:30:11;102106.00;;;16.12;54.22
53659;BME280;41524;35.624;139.698;2023-05-03T21:35:12;102111.00;;;16.17;53.97
53659;BME280;41524;35.624;139.698;2023-05-03T21:40:11;102109.00;;;16.89;52.64
53659;BME280;41524;35.624;139.698;2023-05-03T21:45:12;102110.00;;;17.50;51.44
53659;BME280;41524;35.624;139.698;2023-05-03T21:50:16;102114.00;;;17.24;51.73
53659;BME280;41524;35.624;139.698;2023-05-03T21:55:11;102114.00;;;17.71;50.98
53659;BME280;41524;35.624;139.698;2023-05-03T22:00:18;102119.00;;;17.07;51.91
53659;BME280;41524;35.624;139.698;2023-05-03T22:05:16;102123.00;;;17.88;50.83
53659;BME280;41524;35.624;139.698;2023-05-03T22:10:17;102121.00;;;18.08;48.97
53659;BME280;41524;35.624;139.698;2023-05-03T22:15:16;102119.00;;;18.23;48.55
53659;BME280;41524;35.624;139.698;2023-05-03T22:20:22;102122.00;;;18.17;48.64
53659;BME280;41524;35.624;139.698;2023-05-03T22:25:22;102120.00;;;18.67;47.92
53659;BME280;41524;35.624;139.698;2023-05-03T22:30:17;102126.00;;;18.20;48.23
53659;BME280;41524;35.624;139.698;2023-05-03T22:35:12;102125.00;;;19.19;45.80
53659;BME280;41524;35.624;139.698;2023-05-03T22:40:12;102121.00;;;18.95;46.09
53659;BME280;41524;35.624;139.698;2023-05-03T22:45:13;102122.00;;;19.74;44.48
53659;BME280;41524;35.624;139.698;2023-05-03T22:50:12;102125.00;;;19.45;43.25
53659;BME280;41524;35.624;139.698;2023-05-03T22:55:11;102119.00;;;18.29;45.91
53659;BME280;41524;35.624;139.698;2023-05-03T23:00:12;102118.00;;;19.23;43.73
53659;BME280;41524;35.624;139.698;2023-05-03T23:05:11;102123.00;;;19.40;42.61
53659;BME280;41524;35.624;139.698;2023-05-03T23:10:12;102116.00;;;21.06;40.46
53659;BME280;41524;35.624;139.698;2023-05-03T23:15:13;102101.00;;;19.51;42.94
53659;BME280;41524;35.624;139.698;2023-05-03T23:20:13;102094.00;;;20.84;40.88
53659;BME280;41524;35.624;139.698;2023-05-03T23:25:18;102085.00;;;18.61;45.53
53659;BME280;41524;35.624;139.698;2023-05-03T23:30:16;102080.00;;;20.11;40.82
53659;BME280;41524;35.624;139.698;2023-05-03T23:35:12;102071.00;;;20.30;40.43
53659;BME280;41524;35.624;139.698;2023-05-03T23:40:11;102064.00;;;19.38;43.59
53659;BME280;41524;35.624;139.698;2023-05-03T23:45:17;102051.00;;;17.90;44.84
53659;BME280;41524;35.624;139.698;2023-05-03T23:50:16;102038.00;;;21.00;42.28
53659;BME280;41524;35.624;139.698;2023-05-03T23:55:11;102032.00;;;19.14;44.58
